sensor_id;sensor_type;location;lat;lon;timestamp;P1;durP1;ratioP1;P2;durP2;ratioP2
9763;SDS011;4921;43.214;27.936;2022-07-23T00:00:14;5.13;;;3.53;;
9763;SDS011;4921;43.214;27.936;2022-07-23T00:02:42;6.40;;;3.57;;
9763;SDS011;4921;43.214;27.936;2022-07-23T00:05:09;8.27;;;3.60;;
9763;SDS011;4921;43.214;27.936;2022-07-23T00:07:36;6.27;;;3.87;;
9763;SDS011;4921;43.214;27.936;2022-07-23T00:10:04;8.23;;;3.57;;
9763;SDS011;4921;43.214;27.936;2022-07-23T00:12:33;6.53;;;3.73;;
9763;SDS011;4921;43.214;27.936;2022-07-23T00:15:00;6.17;;;3.77;;
9763;SDS011;4921;43.214;27.936;2022-07-23T00:17:27;3.87;;;2.53;;
9763;SDS011;4921;43.214;27.936;2022-07-23T00:19:54;8.83;;;3.63;;
9763;SDS011;4921;43.214;27.936;2022-07-23T00:22:21;6.73;;;3.90;;
9763;SDS011;4921;43.214;27.936;2022-07-23T00:24:48;2.60;;;2.37;;
9763;SDS011;4921;43.214;27.936;2022-07-23T00:27:15;5.67;;;2.70;;
9763;SDS011;4921;43.214;27.936;2022-07-23T00:29:43;5.23;;;3.13;;
9763;SDS011;4921;43.214;27.936;2022-07-23T00:32:10;10.77;;;4.00;;
9763;SDS011;4921;43.214;27.936;2022-07-23T00:34:37;12.97;;;4.63;;
9763;SDS011;4921;43.214;27.936;2022-07-23T00:37:04;6.70;;;3.37;;
9763;SDS011;4921;43.214;27.936;2022-07-23T00:39:31;7.70;;;4.33;;
9763;SDS011;4921;43.214;27.936;2022-07-23T00:41:58;13.90;;;5.23;;
9763;SDS011;4921;43.214;27.936;2022-07-23T00:44:26;6.00;;;3.53;;
9763;SDS011;4921;43.214;27.936;2022-07-23T00:46:56;11.20;;;5.10;;
9763;SDS011;4921;43.214;27.936;2022-07-23T00:49:24;9.53;;;5.13;;
9763;SDS011;4921;43.214;27.936;2022-07-23T00:51:53;7.20;;;2.80;;
9763;SDS011;4921;43.214;27.936;2022-07-23T00:54:21;9.60;;;3.60;;
9763;SDS011;4921;43.214;27.936;2022-07-23T00:56:49;8.67;;;3.87;;
9763;SDS011;4921;43.214;27.936;2022-07-23T00:59:16;4.00;;;2.50;;
9763;SDS011;4921;43.214;27.936;2022-07-23T01:01:43;10.23;;;3.27;;
9763;SDS011;4921;43.214;27.936;2022-07-23T01:04:14;5.03;;;2.47;;
9763;SDS011;4921;43.214;27.936;2022-07-23T01:06:41;12.93;;;3.77;;
9763;SDS011;4921;43.214;27.936;2022-07-23T01:09:10;4.53;;;2.20;;
9763;SDS011;4921;43.214;27.936;2022-07-23T01:11:37;7.70;;;3.00;;
9763;SDS011;4921;43.214;27.936;2022-07-23T01:14:08;7.80;;;3.60;;
9763;SDS011;4921;43.214;27.936;2022-07-23T01:16:38;8.90;;;3.00;;
9763;SDS011;4921;43.214;27.936;2022-07-23T01:19:05;5.10;;;3.30;;
9763;SDS011;4921;43.214;27.936;2022-07-23T01:21:37;3.37;;;2.10;;
9763;SDS011;4921;43.214;27.936;2022-07-23T01:24:07;2.27;;;1.97;;
9763;SDS011;4921;43.214;27.936;2022-07-23T01:26:34;6.33;;;2.97;;
9763;SDS011;4921;43.214;27.936;2022-07-23T01:29:02;2.97;;;2.23;;
9763;SDS011;4921;43.214;27.936;2022-07-23T01:31:30;4.87;;;1.90;;
9763;SDS011;4921;43.214;27.936;2022-07-23T01:33:57;4.80;;;3.03;;
9763;SDS011;4921;43.214;27.936;2022-07-23T01:36:24;4.63;;;2.53;;
9763;SDS011;4921;43.214;27.936;2022-07-23T01:38:51;3.83;;;1.90;;
9763;SDS011;4921;43.214;27.936;2022-07-23T01:41:20;2.33;;;2.13;;
9763;SDS011;4921;43.214;27.936;2022-07-23T01:43:47;6.83;;;3.00;;
9763;SDS011;4921;43.214;27.936;2022-07-23T01:46:14;7.40;;;3.20;;
9763;SDS011;4921;43.214;27.936;2022-07-23T01:48:41;3.77;;;2.70;;
9763;SDS011;4921;43.214;27.936;2022-07-23T01:51:08;3.20;;;1.97;;
9763;SDS011;4921;43.214;27.936;2022-07-23T01:53:35;3.37;;;1.97;;
9763;SDS011;4921;43.214;27.936;2022-07-23T01:56:02;4.60;;;2.73;;
9763;SDS011;4921;43.214;27.936;2022-07-23T01:58:31;3.97;;;2.20;;
9763;SDS011;4921;43.214;27.936;2022-07-23T02:00:59;4.07;;;2.47;;
9763;SDS011;4921;43.214;27.936;2022-07-23T02:03:26;7.40;;;3.20;;
9763;SDS011;4921;43.214;27.936;2022-07-23T02:05:53;2.47;;;1.83;;
9763;SDS011;4921;43.214;27.936;2022-07-23T02:08:20;5.63;;;2.67;;
9763;SDS011;4921;43.214;27.936;2022-07-23T02:10:47;8.97;;;2.73;;
9763;SDS011;4921;43.214;27.936;2022-07-23T02:13:16;3.07;;;2.20;;
9763;SDS011;4921;43.214;27.936;2022-07-23T02:15:45;4.87;;;2.80;;
9763;SDS011;4921;43.214;27.936;2022-07-23T02:18:12;5.00;;;2.80;;
9763;SDS011;4921;43.214;27.936;2022-07-23T02:20:39;6.17;;;2.80;;
9763;SDS011;4921;43.214;27.936;2022-07-23T02:23:06;3.47;;;3.07;;
9763;SDS011;4921;43.214;27.936;2022-07-23T02:25:33;8.23;;;3.70;;
9763;SDS011;4921;43.214;27.936;2022-07-23T02:28:00;5.90;;;3.20;;
9763;SDS011;4921;43.214;27.936;2022-07-23T02:30:28;8.83;;;3.43;;
9763;SDS011;4921;43.214;27.936;2022-07-23T02:32:56;8.40;;;3.70;;
9763;SDS011;4921;43.214;27.936;2022-07-23T02:35:23;10.93;;;4.07;;
9763;SDS011;4921;43.214;27.936;2022-07-23T02:37:50;8.03;;;3.97;;
9763;SDS011;4921;43.214;27.936;2022-07-23T02:40:17;9.23;;;3.87;;
9763;SDS011;4921;43.214;27.936;2022-07-23T02:42:45;7.57;;;2.90;;
9763;SDS011;4921;43.214;27.936;2022-07-23T02:45:12;9.70;;;4.30;;
9763;SDS011;4921;43.214;27.936;2022-07-23T02:47:39;12.87;;;4.70;;
9763;SDS011;4921;43.214;27.936;2022-07-23T02:50:08;16.17;;;4.87;;
9763;SDS011;4921;43.214;27.936;2022-07-23T02:52:37;9.83;;;4.47;;
9763;SDS011;4921;43.214;27.936;2022-07-23T02:55:04;11.97;;;4.27;;
9763;SDS011;4921;43.214;27.936;2022-07-23T02:57:32;11.90;;;4.00;;
9763;SDS011;4921;43.214;27.936;2022-07-23T02:59:59;8.57;;;4.30;;
9763;SDS011;4921;43.214;27.936;2022-07-23T03:02:26;11.83;;;5.63;;
9763;SDS011;4921;43.214;27.936;2022-07-23T03:04:53;20.77;;;6.17;;
9763;SDS011;4921;43.214;27.936;2022-07-23T03:07:21;18.17;;;6.40;;
9763;SDS011;4921;43.214;27.936;2022-07-23T03:09:48;13.07;;;5.90;;
9763;SDS011;4921;43.214;27.936;2022-07-23T03:12:15;19.53;;;6.57;;
9763;SDS011;4921;43.214;27.936;2022-07-23T03:14:42;20.77;;;4.83;;
9763;SDS011;4921;43.214;27.936;2022-07-23T03:17:09;20.37;;;5.07;;
9763;SDS011;4921;43.214;27.936;2022-07-23T03:19:36;14.07;;;5.00;;
9763;SDS011;4921;43.214;27.936;2022-07-23T03:22:03;13.30;;;5.70;;
9763;SDS011;4921;43.214;27.936;2022-07-23T03:24:32;23.43;;;5.47;;
9763;SDS011;4921;43.214;27.936;2022-07-23T03:27:17;14.27;;;5.83;;
9763;SDS011;4921;43.214;27.936;2022-07-23T03:29:44;11.90;;;4.53;;
9763;SDS011;4921;43.214;27.936;2022-07-23T03:32:11;12.03;;;4.53;;
9763;SDS011;4921;43.214;27.936;2022-07-23T03:34:38;12.20;;;5.40;;
9763;SDS011;4921;43.214;27.936;2022-07-23T03:37:05;12.27;;;6.33;;
9763;SDS011;4921;43.214;27.936;2022-07-23T03:39:33;13.77;;;6.30;;
9763;SDS011;4921;43.214;27.936;2022-07-23T03:42:00;11.63;;;5.87;;
9763;SDS011;4921;43.214;27.936;2022-07-23T03:44:27;11.50;;;4.27;;
9763;SDS011;4921;43.214;27.936;2022-07-23T03:46:54;14.43;;;5.73;;
9763;SDS011;4921;43.214;27.936;2022-07-23T03:49:21;12.50;;;5.23;;
9763;SDS011;4921;43.214;27.936;2022-07-23T03:51:48;14.83;;;4.80;;
9763;SDS011;4921;43.214;27.936;2022-07-23T03:54:15;13.10;;;5.03;;
9763;SDS011;4921;43.214;27.936;2022-07-23T03:56:44;11.73;;;4.53;;
9763;SDS011;4921;43.214;27.936;2022-07-23T03:59:11;12.80;;;3.73;;
9763;SDS011;4921;43.214;27.936;2022-07-23T04:01:38;7.00;;;3.63;;
9763;SDS011;4921;43.214;27.936;2022-07-23T04:04:05;8.03;;;3.70;;
9763;SDS011;4921;43.214;27.936;2022-07-23T04:06:33;5.40;;;2.83;;
9763;SDS011;4921;43.214;27.936;2022-07-23T04:09:00;9.30;;;4.57;;
9763;SDS011;4921;43.214;27.936;2022-07-23T04:11:27;6.73;;;3.97;;
9763;SDS011;4921;43.214;27.936;2022-07-23T04:13:56;5.20;;;3.20;;
9763;SDS011;4921;43.214;27.936;2022-07-23T04:16:23;13.27;;;4.50;;
9763;SDS011;4921;43.214;27.936;2022-07-23T04:18:50;10.73;;;3.47;;
9763;SDS011;4921;43.214;27.936;2022-07-23T04:21:17;7.17;;;2.90;;
9763;SDS011;4921;43.214;27.936;2022-07-23T04:23:44;7.70;;;3.10;;
9763;SDS011;4921;43.214;27.936;2022-07-23T04:26:11;9.07;;;3.97;;
9763;SDS011;4921;43.214;27.936;2022-07-23T04:28:38;8.03;;;3.30;;
9763;SDS011;4921;43.214;27.936;2022-07-23T04:31:06;9.50;;;3.30;;
9763;SDS011;4921;43.214;27.936;2022-07-23T04:33:33;7.00;;;3.27;;
9763;SDS011;4921;43.214;27.936;2022-07-23T04:36:00;10.03;;;3.70;;
9763;SDS011;4921;43.214;27.936;2022-07-23T04:38:27;6.93;;;3.73;;
9763;SDS011;4921;43.214;27.936;2022-07-23T04:40:54;7.57;;;3.40;;
9763;SDS011;4921;43.214;27.936;2022-07-23T04:43:21;3.80;;;2.50;;
9763;SDS011;4921;43.214;27.936;2022-07-23T04:45:48;9.27;;;3.20;;
9763;SDS011;4921;43.214;27.936;2022-07-23T04:48:16;5.60;;;3.07;;
9763;SDS011;4921;43.214;27.936;2022-07-23T04:50:43;7.70;;;3.10;;
9763;SDS011;4921;43.214;27.936;2022-07-23T04:53:10;7.80;;;3.83;;
9763;SDS011;4921;43.214;27.936;2022-07-23T04:55:37;11.57;;;4.57;;
9763;SDS011;4921;43.214;27.936;2022-07-23T04:58:04;5.03;;;2.43;;
9763;SDS011;4921;43.214;27.936;2022-07-23T05:00:31;4.23;;;2.40;;
9763;SDS011;4921;43.214;27.936;2022-07-23T05:02:58;4.30;;;2.83;;
9763;SDS011;4921;43.214;27.936;2022-07-23T05:05:27;6.80;;;3.10;;
9763;SDS011;4921;43.214;27.936;2022-07-23T05:07:55;7.83;;;3.07;;
9763;SDS011;4921;43.214;27.936;2022-07-23T05:10:22;7.90;;;3.10;;
9763;SDS011;4921;43.214;27.936;2022-07-23T05:12:49;14.07;;;3.33;;
9763;SDS011;4921;43.214;27.936;2022-07-23T05:15:16;7.93;;;3.10;;
9763;SDS011;4921;43.214;27.936;2022-07-23T05:17:43;8.23;;;3.50;;
9763;SDS011;4921;43.214;27.936;2022-07-23T05:20:10;6.17;;;2.97;;
9763;SDS011;4921;43.214;27.936;2022-07-23T05:22:39;6.43;;;3.37;;
9763;SDS011;4921;43.214;27.936;2022-07-23T05:25:07;8.07;;;3.23;;
9763;SDS011;4921;43.214;27.936;2022-07-23T05:27:34;5.60;;;3.73;;
9763;SDS011;4921;43.214;27.936;2022-07-23T05:30:02;7.10;;;3.87;;
9763;SDS011;4921;43.214;27.936;2022-07-23T05:32:30;7.57;;;3.10;;
9763;SDS011;4921;43.214;27.936;2022-07-23T05:34:58;11.33;;;4.03;;
9763;SDS011;4921;43.214;27.936;2022-07-23T05:37:25;8.83;;;3.50;;
9763;SDS011;4921;43.214;27.936;2022-07-23T05:39:53;13.27;;;4.63;;
9763;SDS011;4921;43.214;27.936;2022-07-23T05:42:20;12.77;;;5.00;;
9763;SDS011;4921;43.214;27.936;2022-07-23T05:44:47;9.90;;;4.80;;
9763;SDS011;4921;43.214;27.936;2022-07-23T05:47:14;11.50;;;5.20;;
9763;SDS011;4921;43.214;27.936;2022-07-23T05:49:41;7.93;;;4.57;;
9763;SDS011;4921;43.214;27.936;2022-07-23T05:52:08;15.10;;;7.33;;
9763;SDS011;4921;43.214;27.936;2022-07-23T05:54:35;14.27;;;6.30;;
9763;SDS011;4921;43.214;27.936;2022-07-23T05:57:04;11.77;;;5.50;;
9763;SDS011;4921;43.214;27.936;2022-07-23T05:59:30;18.30;;;6.27;;
9763;SDS011;4921;43.214;27.936;2022-07-23T06:01:57;11.77;;;5.40;;
9763;SDS011;4921;43.214;27.936;2022-07-23T06:04:24;12.80;;;5.17;;
9763;SDS011;4921;43.214;27.936;2022-07-23T06:06:51;14.47;;;5.80;;
9763;SDS011;4921;43.214;27.936;2022-07-23T06:09:18;12.53;;;5.20;;
9763;SDS011;4921;43.214;27.936;2022-07-23T06:11:45;11.90;;;5.87;;
9763;SDS011;4921;43.214;27.936;2022-07-23T06:14:14;12.37;;;5.80;;
9763;SDS011;4921;43.214;27.936;2022-07-23T06:16:41;19.67;;;6.00;;
9763;SDS011;4921;43.214;27.936;2022-07-23T06:19:08;15.10;;;6.40;;
9763;SDS011;4921;43.214;27.936;2022-07-23T06:21:35;10.07;;;5.10;;
9763;SDS011;4921;43.214;27.936;2022-07-23T06:24:02;11.90;;;5.67;;
9763;SDS011;4921;43.214;27.936;2022-07-23T06:26:29;10.80;;;5.00;;
9763;SDS011;4921;43.214;27.936;2022-07-23T06:28:56;13.47;;;5.70;;
9763;SDS011;4921;43.214;27.936;2022-07-23T06:31:24;12.03;;;5.47;;
9763;SDS011;4921;43.214;27.936;2022-07-23T06:33:51;12.67;;;5.93;;
9763;SDS011;4921;43.214;27.936;2022-07-23T06:36:18;11.30;;;5.20;;
9763;SDS011;4921;43.214;27.936;2022-07-23T06:38:45;11.37;;;5.77;;
9763;SDS011;4921;43.214;27.936;2022-07-23T06:41:12;4.40;;;3.70;;
9763;SDS011;4921;43.214;27.936;2022-07-23T06:43:39;9.43;;;3.77;;
9763;SDS011;4921;43.214;27.936;2022-07-23T06:46:06;5.17;;;3.77;;
9763;SDS011;4921;43.214;27.936;2022-07-23T06:48:34;9.33;;;3.43;;
9763;SDS011;4921;43.214;27.936;2022-07-23T06:51:01;5.57;;;3.47;;
9763;SDS011;4921;43.214;27.936;2022-07-23T06:53:28;6.57;;;3.70;;
9763;SDS011;4921;43.214;27.936;2022-07-23T06:55:55;7.27;;;3.70;;
9763;SDS011;4921;43.214;27.936;2022-07-23T06:58:22;9.47;;;4.10;;
9763;SDS011;4921;43.214;27.936;2022-07-23T07:00:49;13.17;;;4.07;;
9763;SDS011;4921;43.214;27.936;2022-07-23T07:03:17;9.23;;;3.80;;
9763;SDS011;4921;43.214;27.936;2022-07-23T07:05:45;6.37;;;3.73;;
9763;SDS011;4921;43.214;27.936;2022-07-23T07:08:12;6.90;;;4.20;;
9763;SDS011;4921;43.214;27.936;2022-07-23T07:10:39;9.37;;;4.00;;
9763;SDS011;4921;43.214;27.936;2022-07-23T07:13:06;7.07;;;4.20;;
9763;SDS011;4921;43.214;27.936;2022-07-23T07:15:33;10.43;;;3.57;;
9763;SDS011;4921;43.214;27.936;2022-07-23T07:18:00;9.90;;;3.87;;
9763;SDS011;4921;43.214;27.936;2022-07-23T07:20:27;7.33;;;3.53;;
9763;SDS011;4921;43.214;27.936;2022-07-23T07:22:56;9.10;;;3.70;;
9763;SDS011;4921;43.214;27.936;2022-07-23T07:25:23;9.60;;;4.13;;
9763;SDS011;4921;43.214;27.936;2022-07-23T07:27:50;7.77;;;3.30;;
9763;SDS011;4921;43.214;27.936;2022-07-23T07:30:17;14.30;;;4.40;;
9763;SDS011;4921;43.214;27.936;2022-07-23T07:32:44;8.60;;;3.97;;
9763;SDS011;4921;43.214;27.936;2022-07-23T07:35:11;10.27;;;3.60;;
9763;SDS011;4921;43.214;27.936;2022-07-23T07:37:38;12.83;;;4.03;;
9763;SDS011;4921;43.214;27.936;2022-07-23T07:40:07;13.20;;;4.40;;
9763;SDS011;4921;43.214;27.936;2022-07-23T07:42:40;10.67;;;3.70;;
9763;SDS011;4921;43.214;27.936;2022-07-23T07:45:11;12.47;;;4.00;;
9763;SDS011;4921;43.214;27.936;2022-07-23T07:47:38;8.77;;;4.03;;
9763;SDS011;4921;43.214;27.936;2022-07-23T07:50:05;8.77;;;4.32;;
9763;SDS011;4921;43.214;27.936;2022-07-23T07:52:33;6.70;;;4.20;;
9763;SDS011;4921;43.214;27.936;2022-07-23T07:55:01;7.03;;;4.10;;
9763;SDS011;4921;43.214;27.936;2022-07-23T07:57:31;7.97;;;3.83;;
9763;SDS011;4921;43.214;27.936;2022-07-23T07:59:58;12.03;;;4.63;;
9763;SDS011;4921;43.214;27.936;2022-07-23T08:02:25;4.17;;;3.67;;
9763;SDS011;4921;43.214;27.936;2022-07-23T08:04:52;5.53;;;3.67;;
9763;SDS011;4921;43.214;27.936;2022-07-23T08:07:21;6.27;;;3.57;;
9763;SDS011;4921;43.214;27.936;2022-07-23T08:09:48;7.80;;;3.67;;
9763;SDS011;4921;43.214;27.936;2022-07-23T08:12:15;5.23;;;4.10;;
9763;SDS011;4921;43.214;27.936;2022-07-23T08:14:43;6.50;;;4.03;;
9763;SDS011;4921;43.214;27.936;2022-07-23T08:17:10;5.73;;;3.63;;
9763;SDS011;4921;43.214;27.936;2022-07-23T08:19:37;6.77;;;3.87;;
9763;SDS011;4921;43.214;27.936;2022-07-23T08:22:04;5.20;;;3.47;;
9763;SDS011;4921;43.214;27.936;2022-07-23T08:24:31;6.27;;;3.50;;
9763;SDS011;4921;43.214;27.936;2022-07-23T08:26:58;5.50;;;3.53;;
9763;SDS011;4921;43.214;27.936;2022-07-23T08:29:25;7.47;;;4.10;;
9763;SDS011;4921;43.214;27.936;2022-07-23T08:31:53;5.17;;;3.40;;
9763;SDS011;4921;43.214;27.936;2022-07-23T08:34:20;3.97;;;3.33;;
9763;SDS011;4921;43.214;27.936;2022-07-23T08:36:48;5.57;;;3.80;;
9763;SDS011;4921;43.214;27.936;2022-07-23T08:39:14;6.20;;;3.47;;
9763;SDS011;4921;43.214;27.936;2022-07-23T08:41:41;7.00;;;3.20;;
9763;SDS011;4921;43.214;27.936;2022-07-23T08:44:09;3.87;;;3.50;;
9763;SDS011;4921;43.214;27.936;2022-07-23T08:46:36;4.80;;;3.00;;
9763;SDS011;4921;43.214;27.936;2022-07-23T08:49:07;4.23;;;3.00;;
9763;SDS011;4921;43.214;27.936;2022-07-23T08:51:34;3.40;;;3.10;;
9763;SDS011;4921;43.214;27.936;2022-07-23T08:54:01;7.43;;;3.10;;
9763;SDS011;4921;43.214;27.936;2022-07-23T08:56:29;8.03;;;4.00;;
9763;SDS011;4921;43.214;27.936;2022-07-23T08:58:56;3.73;;;2.83;;
9763;SDS011;4921;43.214;27.936;2022-07-23T09:01:24;5.53;;;2.87;;
9763;SDS011;4921;43.214;27.936;2022-07-23T09:03:51;5.13;;;3.10;;
9763;SDS011;4921;43.214;27.936;2022-07-23T09:06:19;2.80;;;2.60;;
9763;SDS011;4921;43.214;27.936;2022-07-23T09:08:46;4.80;;;3.00;;
9763;SDS011;4921;43.214;27.936;2022-07-23T09:11:16;6.20;;;3.17;;
9763;SDS011;4921;43.214;27.936;2022-07-23T09:13:45;3.87;;;3.07;;
9763;SDS011;4921;43.214;27.936;2022-07-23T09:16:14;5.97;;;3.20;;
9763;SDS011;4921;43.214;27.936;2022-07-23T09:18:43;7.60;;;3.10;;
9763;SDS011;4921;43.214;27.936;2022-07-23T09:21:13;7.17;;;5.47;;
9763;SDS011;4921;43.214;27.936;2022-07-23T09:23:43;6.47;;;3.37;;
9763;SDS011;4921;43.214;27.936;2022-07-23T09:29:10;5.27;;;2.63;;
9763;SDS011;4921;43.214;27.936;2022-07-23T09:31:43;3.97;;;2.50;;
9763;SDS011;4921;43.214;27.936;2022-07-23T09:34:12;4.10;;;2.97;;
9763;SDS011;4921;43.214;27.936;2022-07-23T09:36:41;3.83;;;2.90;;
9763;SDS011;4921;43.214;27.936;2022-07-23T09:39:10;4.80;;;3.03;;
9763;SDS011;4921;43.214;27.936;2022-07-23T09:41:39;4.53;;;2.77;;
9763;SDS011;4921;43.214;27.936;2022-07-23T09:44:12;5.73;;;3.10;;
9763;SDS011;4921;43.214;27.936;2022-07-23T09:46:41;3.80;;;2.87;;
9763;SDS011;4921;43.214;27.936;2022-07-23T09:49:18;3.10;;;2.80;;
9763;SDS011;4921;43.214;27.936;2022-07-23T09:51:50;3.83;;;3.23;;
9763;SDS011;4921;43.214;27.936;2022-07-23T09:54:27;4.70;;;2.80;;
9763;SDS011;4921;43.214;27.936;2022-07-23T09:57:00;6.63;;;2.93;;
9763;SDS011;4921;43.214;27.936;2022-07-23T09:59:31;3.00;;;2.70;;
9763;SDS011;4921;43.214;27.936;2022-07-23T10:02:00;3.83;;;3.20;;
9763;SDS011;4921;43.214;27.936;2022-07-23T10:04:28;4.77;;;2.70;;
9763;SDS011;4921;43.214;27.936;2022-07-23T10:06:56;4.33;;;2.80;;
9763;SDS011;4921;43.214;27.936;2022-07-23T10:09:29;5.77;;;2.80;;
9763;SDS011;4921;43.214;27.936;2022-07-23T10:11:58;4.97;;;3.17;;
9763;SDS011;4921;43.214;27.936;2022-07-23T10:14:34;3.33;;;3.00;;
9763;SDS011;4921;43.214;27.936;2022-07-23T10:17:00;4.53;;;3.17;;
9763;SDS011;4921;43.214;27.936;2022-07-23T10:19:29;6.13;;;3.03;;
9763;SDS011;4921;43.214;27.936;2022-07-23T10:21:57;4.77;;;3.07;;
9763;SDS011;4921;43.214;27.936;2022-07-23T10:24:35;3.83;;;3.50;;
9763;SDS011;4921;43.214;27.936;2022-07-23T10:27:22;3.80;;;3.20;;
9763;SDS011;4921;43.214;27.936;2022-07-23T10:30:21;7.60;;;3.33;;
9763;SDS011;4921;43.214;27.936;2022-07-23T10:33:01;5.07;;;3.43;;
9763;SDS011;4921;43.214;27.936;2022-07-23T10:35:39;4.70;;;3.23;;
9763;SDS011;4921;43.214;27.936;2022-07-23T10:38:15;4.67;;;3.67;;
9763;SDS011;4921;43.214;27.936;2022-07-23T10:40:57;8.17;;;3.47;;
9763;SDS011;4921;43.214;27.936;2022-07-23T10:43:25;3.50;;;3.20;;
9763;SDS011;4921;43.214;27.936;2022-07-23T10:45:53;4.90;;;3.50;;
9763;SDS011;4921;43.214;27.936;2022-07-23T10:48:21;8.83;;;5.30;;
9763;SDS011;4921;43.214;27.936;2022-07-23T10:51:06;5.03;;;4.33;;
9763;SDS011;4921;43.214;27.936;2022-07-23T10:53:54;7.10;;;3.80;;
9763;SDS011;4921;43.214;27.936;2022-07-23T11:02:34;5.20;;;3.70;;
9763;SDS011;4921;43.214;27.936;2022-07-23T11:05:03;6.83;;;3.63;;
9763;SDS011;4921;43.214;27.936;2022-07-23T11:07:32;4.03;;;3.40;;
9763;SDS011;4921;43.214;27.936;2022-07-23T11:09:59;5.23;;;3.60;;
9763;SDS011;4921;43.214;27.936;2022-07-23T11:12:34;6.70;;;3.47;;
9763;SDS011;4921;43.214;27.936;2022-07-23T11:15:03;6.40;;;3.33;;
9763;SDS011;4921;43.214;27.936;2022-07-23T11:17:32;10.73;;;4.27;;
9763;SDS011;4921;43.214;27.936;2022-07-23T11:22:48;4.83;;;3.10;;
9763;SDS011;4921;43.214;27.936;2022-07-23T11:25:29;6.07;;;3.60;;
9763;SDS011;4921;43.214;27.936;2022-07-23T11:28:16;10.37;;;3.43;;
9763;SDS011;4921;43.214;27.936;2022-07-23T11:30:46;6.67;;;3.37;;
9763;SDS011;4921;43.214;27.936;2022-07-23T11:33:17;3.40;;;3.20;;
9763;SDS011;4921;43.214;27.936;2022-07-23T11:35:49;4.87;;;3.63;;
9763;SDS011;4921;43.214;27.936;2022-07-23T11:38:27;3.90;;;3.50;;
9763;SDS011;4921;43.214;27.936;2022-07-23T11:40:56;7.37;;;3.83;;
9763;SDS011;4921;43.214;27.936;2022-07-23T11:43:25;5.13;;;3.67;;
9763;SDS011;4921;43.214;27.936;2022-07-23T11:45:53;6.40;;;3.97;;
9763;SDS011;4921;43.214;27.936;2022-07-23T11:48:23;7.53;;;4.20;;
9763;SDS011;4921;43.214;27.936;2022-07-23T11:50:51;6.03;;;3.80;;
9763;SDS011;4921;43.214;27.936;2022-07-23T11:53:22;6.90;;;4.10;;
9763;SDS011;4921;43.214;27.936;2022-07-23T11:55:50;6.23;;;4.00;;
9763;SDS011;4921;43.214;27.936;2022-07-23T11:58:17;12.03;;;4.20;;
9763;SDS011;4921;43.214;27.936;2022-07-23T12:00:46;6.57;;;4.30;;
9763;SDS011;4921;43.214;27.936;2022-07-23T12:03:13;4.50;;;3.80;;
9763;SDS011;4921;43.214;27.936;2022-07-23T12:05:40;13.00;;;4.50;;
9763;SDS011;4921;43.214;27.936;2022-07-23T12:08:08;6.20;;;3.80;;
9763;SDS011;4921;43.214;27.936;2022-07-23T12:10:37;9.37;;;4.03;;
9763;SDS011;4921;43.214;27.936;2022-07-23T12:13:07;5.47;;;4.20;;
9763;SDS011;4921;43.214;27.936;2022-07-23T12:15:36;7.50;;;4.37;;
9763;SDS011;4921;43.214;27.936;2022-07-23T12:18:06;13.87;;;4.20;;
9763;SDS011;4921;43.214;27.936;2022-07-23T12:20:35;8.20;;;4.70;;
9763;SDS011;4921;43.214;27.936;2022-07-23T12:23:05;7.63;;;5.67;;
9763;SDS011;4921;43.214;27.936;2022-07-23T12:25:35;5.00;;;4.33;;
9763;SDS011;4921;43.214;27.936;2022-07-23T12:28:06;7.57;;;4.13;;
9763;SDS011;4921;43.214;27.936;2022-07-23T12:30:37;8.07;;;4.40;;
9763;SDS011;4921;43.214;27.936;2022-07-23T12:33:08;8.57;;;4.80;;
9763;SDS011;4921;43.214;27.936;2022-07-23T12:35:37;7.07;;;4.53;;
9763;SDS011;4921;43.214;27.936;2022-07-23T12:38:06;7.27;;;4.80;;
9763;SDS011;4921;43.214;27.936;2022-07-23T12:40:35;5.63;;;4.40;;
9763;SDS011;4921;43.214;27.936;2022-07-23T12:43:04;8.93;;;4.40;;
9763;SDS011;4921;43.214;27.936;2022-07-23T12:45:43;6.83;;;4.33;;
9763;SDS011;4921;43.214;27.936;2022-07-23T12:48:17;5.23;;;4.20;;
9763;SDS011;4921;43.214;27.936;2022-07-23T12:50:50;6.63;;;4.53;;
9763;SDS011;4921;43.214;27.936;2022-07-23T12:53:19;6.63;;;4.67;;
9763;SDS011;4921;43.214;27.936;2022-07-23T12:55:48;7.00;;;4.47;;
9763;SDS011;4921;43.214;27.936;2022-07-23T12:58:16;7.97;;;4.57;;
9763;SDS011;4921;43.214;27.936;2022-07-23T13:00:54;5.40;;;4.27;;
9763;SDS011;4921;43.214;27.936;2022-07-23T13:03:31;6.40;;;4.40;;
9763;SDS011;4921;43.214;27.936;2022-07-23T13:06:03;6.37;;;4.27;;
9763;SDS011;4921;43.214;27.936;2022-07-23T13:08:31;6.53;;;4.73;;
9763;SDS011;4921;43.214;27.936;2022-07-23T13:10:59;6.17;;;4.33;;
9763;SDS011;4921;43.214;27.936;2022-07-23T13:13:44;6.00;;;4.30;;
9763;SDS011;4921;43.214;27.936;2022-07-23T13:16:11;4.77;;;3.70;;
9763;SDS011;4921;43.214;27.936;2022-07-23T13:18:40;5.17;;;4.00;;
9763;SDS011;4921;43.214;27.936;2022-07-23T13:21:07;6.90;;;4.23;;
9763;SDS011;4921;43.214;27.936;2022-07-23T13:23:34;5.33;;;4.13;;
9763;SDS011;4921;43.214;27.936;2022-07-23T13:26:01;5.30;;;3.87;;
9763;SDS011;4921;43.214;27.936;2022-07-23T13:28:29;8.23;;;4.40;;
9763;SDS011;4921;43.214;27.936;2022-07-23T13:30:56;9.10;;;4.03;;
9763;SDS011;4921;43.214;27.936;2022-07-23T13:33:24;7.57;;;5.03;;
9763;SDS011;4921;43.214;27.936;2022-07-23T13:35:53;7.40;;;4.17;;
9763;SDS011;4921;43.214;27.936;2022-07-23T13:38:20;8.07;;;4.60;;
9763;SDS011;4921;43.214;27.936;2022-07-23T13:40:48;10.43;;;4.20;;
9763;SDS011;4921;43.214;27.936;2022-07-23T13:43:16;6.70;;;4.50;;
9763;SDS011;4921;43.214;27.936;2022-07-23T13:45:44;6.07;;;4.90;;
9763;SDS011;4921;43.214;27.936;2022-07-23T13:48:13;7.27;;;4.47;;
9763;SDS011;4921;43.214;27.936;2022-07-23T13:50:41;10.07;;;4.20;;
9763;SDS011;4921;43.214;27.936;2022-07-23T13:53:10;9.67;;;4.53;;
9763;SDS011;4921;43.214;27.936;2022-07-23T13:55:39;5.33;;;4.13;;
9763;SDS011;4921;43.214;27.936;2022-07-23T13:58:06;7.63;;;4.43;;
9763;SDS011;4921;43.214;27.936;2022-07-23T14:00:35;6.80;;;4.40;;
9763;SDS011;4921;43.214;27.936;2022-07-23T14:03:04;7.17;;;4.50;;
9763;SDS011;4921;43.214;27.936;2022-07-23T14:05:31;6.63;;;4.60;;
9763;SDS011;4921;43.214;27.936;2022-07-23T14:07:58;6.60;;;4.00;;
9763;SDS011;4921;43.214;27.936;2022-07-23T14:10:27;10.40;;;4.33;;
9763;SDS011;4921;43.214;27.936;2022-07-23T14:12:54;8.73;;;4.87;;
9763;SDS011;4921;43.214;27.936;2022-07-23T14:15:23;10.57;;;4.23;;
9763;SDS011;4921;43.214;27.936;2022-07-23T14:17:52;7.87;;;3.90;;
9763;SDS011;4921;43.214;27.936;2022-07-23T14:20:19;7.17;;;3.77;;
9763;SDS011;4921;43.214;27.936;2022-07-23T14:22:47;4.13;;;3.83;;
9763;SDS011;4921;43.214;27.936;2022-07-23T14:25:14;6.63;;;3.47;;
9763;SDS011;4921;43.214;27.936;2022-07-23T14:27:43;6.33;;;4.07;;
9763;SDS011;4921;43.214;27.936;2022-07-23T14:30:11;5.63;;;3.83;;
9763;SDS011;4921;43.214;27.936;2022-07-23T14:32:40;5.90;;;4.17;;
9763;SDS011;4921;43.214;27.936;2022-07-23T14:35:07;7.30;;;3.60;;
9763;SDS011;4921;43.214;27.936;2022-07-23T14:37:34;8.47;;;3.50;;
9763;SDS011;4921;43.214;27.936;2022-07-23T14:40:02;3.77;;;3.37;;
9763;SDS011;4921;43.214;27.936;2022-07-23T14:42:29;4.47;;;3.77;;
9763;SDS011;4921;43.214;27.936;2022-07-23T14:44:58;4.70;;;3.70;;
9763;SDS011;4921;43.214;27.936;2022-07-23T14:47:25;7.33;;;3.80;;
9763;SDS011;4921;43.214;27.936;2022-07-23T14:49:52;7.03;;;4.67;;
9763;SDS011;4921;43.214;27.936;2022-07-23T14:52:19;6.63;;;3.93;;
9763;SDS011;4921;43.214;27.936;2022-07-23T14:54:46;8.50;;;4.70;;
9763;SDS011;4921;43.214;27.936;2022-07-23T14:57:13;5.30;;;3.83;;
9763;SDS011;4921;43.214;27.936;2022-07-23T14:59:40;7.50;;;4.23;;
9763;SDS011;4921;43.214;27.936;2022-07-23T15:02:09;6.77;;;4.30;;
9763;SDS011;4921;43.214;27.936;2022-07-23T15:04:36;6.63;;;4.80;;
9763;SDS011;4921;43.214;27.936;2022-07-23T15:07:04;8.03;;;5.00;;
9763;SDS011;4921;43.214;27.936;2022-07-23T15:09:31;10.80;;;5.40;;
9763;SDS011;4921;43.214;27.936;2022-07-23T15:11:58;8.13;;;6.30;;
9763;SDS011;4921;43.214;27.936;2022-07-23T15:14:25;5.97;;;4.80;;
9763;SDS011;4921;43.214;27.936;2022-07-23T15:16:52;10.50;;;5.00;;